createdAt,value
2018-07-01T00:00:15.929Z,1.33
2018-07-01T00:02:44.496Z,0.90
2018-07-01T00:05:13.097Z,1.00
2018-07-01T00:07:41.620Z,1.00
2018-07-01T00:10:10.697Z,0.97
2018-07-01T00:12:39.365Z,1.10
2018-07-01T00:15:08.541Z,1.40
2018-07-01T00:17:40.818Z,1.20
2018-07-01T00:20:10.033Z,1.40
2018-07-01T00:22:38.911Z,1.27
2018-07-01T00:25:07.741Z,1.83
2018-07-01T00:27:36.162Z,1.20
2018-07-01T00:30:05.218Z,1.60
2018-07-01T00:32:33.668Z,1.60
2018-07-01T00:35:02.102Z,1.30
2018-07-01T00:37:30.545Z,1.30
2018-07-01T00:39:58.920Z,1.60
2018-07-01T00:42:27.459Z,1.60
2018-07-01T00:44:56.041Z,1.77
2018-07-01T00:47:24.525Z,1.63
2018-07-01T00:49:52.920Z,1.57
2018-07-01T00:52:21.524Z,1.33
2018-07-01T00:54:49.964Z,1.43
2018-07-01T00:57:18.441Z,1.40
2018-07-01T00:59:46.884Z,1.70
2018-07-01T01:02:15.389Z,1.30
2018-07-01T01:04:43.985Z,1.60
2018-07-01T01:07:12.450Z,1.63
2018-07-01T01:09:40.880Z,1.60
2018-07-01T01:12:09.546Z,1.40
2018-07-01T01:14:37.997Z,1.70
2018-07-01T01:17:06.365Z,1.90
2018-07-01T01:19:34.854Z,1.40
2018-07-01T01:22:03.457Z,1.70
2018-07-01T01:24:32.111Z,1.67
2018-07-01T01:27:00.584Z,1.50
2018-07-01T01:29:29.112Z,1.40
2018-07-01T01:31:57.700Z,1.40
2018-07-01T01:34:26.338Z,1.50
2018-07-01T01:36:54.814Z,1.70
2018-07-01T01:39:26.811Z,1.20
2018-07-01T01:42:04.912Z,1.30
2018-07-01T01:44:39.409Z,1.23
2018-07-01T01:47:15.002Z,1.30
2018-07-01T01:50:02.547Z,1.40
2018-07-01T01:53:34.612Z,1.13
2018-07-01T01:56:12.914Z,1.37
2018-07-01T01:58:49.476Z,1.30
2018-07-01T02:01:23.268Z,1.27
2018-07-01T02:03:58.076Z,1.40
2018-07-01T02:06:31.677Z,1.20
2018-07-01T02:09:04.614Z,1.50
2018-07-01T02:11:36.055Z,1.30
2018-07-01T02:14:07.792Z,1.10
2018-07-01T02:16:42.037Z,1.20
2018-07-01T02:19:10.468Z,1.10
2018-07-01T02:21:39.192Z,1.43
2018-07-01T02:24:13.754Z,1.10
2018-07-01T02:26:42.520Z,1.00
2018-07-01T02:29:12.088Z,1.10
2018-07-01T02:31:40.497Z,1.00
2018-07-01T02:34:09.025Z,1.03
2018-07-01T02:36:37.444Z,1.00
2018-07-01T02:39:07.980Z,1.40
2018-07-01T02:41:36.404Z,1.30
2018-07-01T02:44:04.929Z,1.13
2018-07-01T02:46:33.456Z,1.40
2018-07-01T02:49:01.691Z,1.20
2018-07-01T02:51:29.973Z,0.83
2018-07-01T02:54:00.987Z,1.10
2018-07-01T02:56:29.400Z,1.03
2018-07-01T02:58:57.911Z,1.50
2018-07-01T03:01:26.537Z,1.10
2018-07-01T03:03:54.939Z,1.37
2018-07-01T03:06:23.515Z,1.00
2018-07-01T03:08:51.918Z,1.13
2018-07-01T03:11:20.324Z,1.20
2018-07-01T03:13:48.431Z,1.17
2018-07-01T03:16:16.978Z,0.90
2018-07-01T03:18:45.393Z,1.37
2018-07-01T03:21:13.884Z,1.10
2018-07-01T03:23:42.300Z,1.17
2018-07-01T03:26:11.180Z,1.20
2018-07-01T03:28:39.654Z,1.10
2018-07-01T03:31:08.177Z,1.20
2018-07-01T03:33:36.729Z,1.10
2018-07-01T03:36:05.302Z,1.00
2018-07-01T03:38:33.595Z,0.90
2018-07-01T03:41:02.008Z,0.90
2018-07-01T03:43:30.592Z,1.20
2018-07-01T03:45:59.024Z,0.87
2018-07-01T03:48:27.596Z,0.77
2018-07-01T03:50:56.196Z,1.17
2018-07-01T03:53:24.940Z,1.00
2018-07-01T03:55:53.495Z,0.83
2018-07-01T03:58:21.888Z,0.90
2018-07-01T04:00:50.556Z,1.00
2018-07-01T04:03:19.012Z,0.73
2018-07-01T04:07:16.882Z,0.77
2018-07-01T04:09:45.344Z,0.93
2018-07-01T04:12:13.816Z,1.00
2018-07-01T04:14:42.336Z,0.60
2018-07-01T04:17:10.699Z,0.80
2018-07-01T04:19:39.640Z,0.70
2018-07-01T04:22:09.216Z,1.00
2018-07-01T04:24:38.292Z,0.80
2018-07-01T04:27:06.745Z,0.80
2018-07-01T04:29:35.977Z,1.20
2018-07-01T04:32:04.739Z,0.80
2018-07-01T04:34:33.210Z,0.60
2018-07-01T04:37:01.706Z,0.70
2018-07-01T04:39:30.187Z,0.60
2018-07-01T04:41:59.732Z,0.70
2018-07-01T04:44:28.176Z,0.73
2018-07-01T04:46:56.680Z,0.90
2018-07-01T04:49:25.069Z,0.80
2018-07-01T04:51:53.594Z,0.80
2018-07-01T04:54:22.206Z,1.00
2018-07-01T04:56:50.665Z,0.83
2018-07-01T04:59:19.076Z,0.70
2018-07-01T05:01:47.664Z,1.00
2018-07-01T05:04:16.093Z,0.90
2018-07-01T05:06:44.659Z,0.60
2018-07-01T05:09:13.908Z,0.70
2018-07-01T05:11:43.201Z,0.63
2018-07-01T05:14:11.828Z,0.90
2018-07-01T05:16:40.508Z,0.80
2018-07-01T05:19:09.576Z,0.80
2018-07-01T05:21:37.980Z,0.90
2018-07-01T05:24:06.464Z,0.80
2018-07-01T05:26:34.752Z,0.80
2018-07-01T05:29:03.276Z,0.70
2018-07-01T05:31:31.857Z,0.90
2018-07-01T05:34:00.324Z,0.80
2018-07-01T05:36:28.809Z,1.23
2018-07-01T05:38:57.332Z,0.70
2018-07-01T05:41:25.708Z,0.63
2018-07-01T05:43:54.134Z,0.83
2018-07-01T05:46:22.564Z,0.70
2018-07-01T05:48:51.094Z,0.60
2018-07-01T05:51:19.600Z,0.73
2018-07-01T05:53:48.095Z,0.90
2018-07-01T05:56:16.986Z,0.83
2018-07-01T05:58:45.415Z,0.90
2018-07-01T06:01:13.789Z,0.73
2018-07-01T06:03:42.307Z,0.73
2018-07-01T06:06:10.792Z,0.97
2018-07-01T06:08:39.203Z,1.03
2018-07-01T06:11:07.747Z,0.80
2018-07-01T06:13:39.712Z,0.80
2018-07-01T06:16:08.177Z,0.80
2018-07-01T06:18:37.008Z,0.90
2018-07-01T06:21:06.637Z,0.80
2018-07-01T06:23:36.107Z,0.93
2018-07-01T06:26:04.711Z,0.90
2018-07-01T06:28:33.293Z,0.80
2018-07-01T06:31:01.745Z,0.60
2018-07-01T06:33:30.173Z,0.70
2018-07-01T06:36:01.987Z,0.83
2018-07-01T06:38:30.440Z,0.90
2018-07-01T06:40:58.992Z,0.90
2018-07-01T06:43:29.601Z,0.80
2018-07-01T06:45:58.092Z,0.80
2018-07-01T06:48:26.652Z,0.62
2018-07-01T06:50:55.217Z,0.70
2018-07-01T06:53:23.755Z,0.80
2018-07-01T06:55:52.419Z,0.60
2018-07-01T06:58:20.856Z,0.80
2018-07-01T07:00:49.496Z,0.90
2018-07-01T07:03:17.956Z,0.55
2018-07-01T07:05:46.452Z,0.60
2018-07-01T07:08:14.866Z,0.60
2018-07-01T07:10:43.336Z,0.80
2018-07-01T07:13:11.903Z,0.93
2018-07-01T07:15:40.309Z,0.60
2018-07-01T07:18:08.760Z,1.00
2018-07-01T07:20:37.333Z,0.80
2018-07-01T07:23:06.201Z,0.70
2018-07-01T07:25:34.636Z,0.60
2018-07-01T07:28:03.288Z,0.80
2018-07-01T07:30:31.733Z,0.70
2018-07-01T07:33:00.230Z,0.50
2018-07-01T07:35:28.738Z,0.80
2018-07-01T07:37:57.571Z,0.60
2018-07-01T07:40:25.888Z,0.50
2018-07-01T07:42:54.379Z,0.65
2018-07-01T07:45:22.909Z,0.50
2018-07-01T07:47:51.412Z,0.80
2018-07-01T07:50:20.936Z,0.70
2018-07-01T07:52:49.552Z,0.70
2018-07-01T07:55:18.214Z,0.70
2018-07-01T07:57:46.680Z,0.85
2018-07-01T08:00:15.340Z,0.75
2018-07-01T08:02:43.731Z,0.72
2018-07-01T08:05:12.223Z,0.55
2018-07-01T08:07:40.648Z,0.78
2018-07-01T08:10:09.114Z,0.65
2018-07-01T08:12:37.632Z,0.70
2018-07-01T08:15:06.257Z,0.72
2018-07-01T08:17:34.872Z,0.62
2018-07-01T08:20:03.429Z,0.57
2018-07-01T08:22:32.568Z,0.70
2018-07-01T08:25:01.144Z,0.60
2018-07-01T08:27:29.548Z,0.70
2018-07-01T08:29:57.972Z,0.70
2018-07-01T08:32:26.368Z,0.60
2018-07-01T08:34:54.875Z,0.70
2018-07-01T08:37:23.749Z,0.53
2018-07-01T08:39:52.284Z,0.62
2018-07-01T08:42:37.077Z,0.60
2018-07-01T08:45:07.528Z,0.50
2018-07-01T08:47:36.356Z,0.95
2018-07-01T08:50:05.017Z,0.62
2018-07-01T08:52:33.402Z,0.60
2018-07-01T08:55:01.797Z,0.65
2018-07-01T08:57:30.248Z,0.50
2018-07-01T08:59:59.264Z,0.70
2018-07-01T09:02:27.757Z,0.42
2018-07-01T09:04:56.352Z,0.68
2018-07-01T09:07:24.836Z,0.68
2018-07-01T09:09:53.276Z,0.53
2018-07-01T09:12:21.320Z,0.60
2018-07-01T09:14:49.638Z,0.53
2018-07-01T09:17:18.192Z,0.55
2018-07-01T09:19:46.586Z,0.60
2018-07-01T09:22:15.140Z,0.53
2018-07-01T09:24:43.600Z,0.80
2018-07-01T09:27:12.107Z,0.40
2018-07-01T09:29:45.880Z,0.50
2018-07-01T09:32:14.417Z,0.40
2018-07-01T09:34:42.933Z,0.30
2018-07-01T09:37:11.357Z,0.50
2018-07-01T09:39:39.862Z,0.85
2018-07-01T09:42:08.299Z,0.60
2018-07-01T09:44:36.757Z,0.50
2018-07-01T09:47:05.241Z,0.80
2018-07-01T09:49:33.780Z,0.35
2018-07-01T09:52:02.376Z,0.60
2018-07-01T09:54:30.876Z,0.82
2018-07-01T09:56:59.327Z,0.40
2018-07-01T09:59:27.809Z,0.50
2018-07-01T10:01:56.390Z,0.75
2018-07-01T10:04:24.798Z,0.75
2018-07-01T10:06:53.292Z,0.65
2018-07-01T10:09:21.813Z,0.47
2018-07-01T10:11:50.409Z,0.50
2018-07-01T10:14:18.868Z,0.60
2018-07-01T10:16:47.313Z,0.78
2018-07-01T10:19:15.778Z,0.50
2018-07-01T10:21:44.319Z,0.55
2018-07-01T10:24:12.764Z,0.70
2018-07-01T10:26:41.195Z,0.60
2018-07-01T10:29:12.475Z,0.50
2018-07-01T10:31:41.790Z,0.60
2018-07-01T10:34:11.470Z,0.70
2018-07-01T10:36:40.021Z,0.60
2018-07-01T10:39:11.069Z,0.68
2018-07-01T10:41:39.583Z,0.80
2018-07-01T10:44:08.044Z,0.62
2018-07-01T10:46:36.617Z,0.65
2018-07-01T10:49:05.248Z,1.32
2018-07-01T10:51:33.737Z,0.75
2018-07-01T10:54:02.124Z,0.78
2018-07-01T10:56:30.660Z,0.70
2018-07-01T10:58:59.244Z,0.72
2018-07-01T11:01:28.024Z,0.75
2018-07-01T11:03:56.388Z,0.60
2018-07-01T11:06:24.917Z,0.70
2018-07-01T11:08:53.365Z,0.80
2018-07-01T11:11:21.989Z,0.80
2018-07-01T11:13:50.364Z,0.72
2018-07-01T11:16:18.817Z,0.82
2018-07-01T11:18:47.294Z,0.90
2018-07-01T11:21:15.721Z,0.93
2018-07-01T11:23:44.160Z,0.95
2018-07-01T11:26:12.514Z,0.80
2018-07-01T11:28:40.890Z,1.10
2018-07-01T11:31:09.332Z,0.72
2018-07-01T11:33:37.812Z,0.62
2018-07-01T11:36:06.420Z,0.70
2018-07-01T11:38:35.980Z,0.50
2018-07-01T11:41:04.536Z,0.60
2018-07-01T11:43:32.996Z,0.78
2018-07-01T11:46:01.532Z,0.72
2018-07-01T11:48:34.890Z,0.70
2018-07-01T11:58:25.178Z,0.70
2018-07-01T12:00:54.583Z,0.70
2018-07-01T12:03:22.948Z,0.70
2018-07-01T12:05:51.591Z,1.27
2018-07-01T12:08:19.851Z,0.70
2018-07-01T12:10:48.165Z,0.70
2018-07-01T12:13:16.470Z,0.40
2018-07-01T12:15:45.953Z,0.60
2018-07-01T12:18:14.372Z,0.57
2018-07-01T12:20:42.878Z,0.53
2018-07-01T12:23:11.753Z,0.50
2018-07-01T12:25:40.217Z,0.70
2018-07-01T12:28:09.157Z,0.60
2018-07-01T12:30:37.583Z,0.60
2018-07-01T12:33:07.433Z,0.60
2018-07-01T12:35:35.994Z,1.05
2018-07-01T12:38:04.520Z,0.60
2018-07-01T12:40:32.887Z,0.40
2018-07-01T12:43:01.216Z,0.55
2018-07-01T12:45:30.756Z,0.70
2018-07-01T12:47:59.549Z,0.60
2018-07-01T12:50:31.864Z,0.60
2018-07-01T12:53:12.656Z,0.60
2018-07-01T12:55:41.209Z,0.50
2018-07-01T12:58:09.640Z,0.60
2018-07-01T13:00:38.156Z,0.40
2018-07-01T13:03:06.569Z,0.50
2018-07-01T13:05:34.945Z,0.60
2018-07-01T13:08:03.407Z,0.30
2018-07-01T13:10:31.912Z,0.53
2018-07-01T13:13:00.412Z,0.78
2018-07-01T13:15:28.957Z,0.42
2018-07-01T13:17:57.436Z,0.53
2018-07-01T13:20:25.977Z,0.60
2018-07-01T13:22:54.468Z,0.45
2018-07-01T13:25:22.953Z,0.78
2018-07-01T13:27:51.449Z,0.60
2018-07-01T13:30:20.344Z,0.60
2018-07-01T13:32:48.828Z,0.55
2018-07-01T13:35:17.776Z,0.50
2018-07-01T13:37:46.324Z,0.40
2018-07-01T13:40:14.667Z,0.50
2018-07-01T13:42:42.989Z,0.55
2018-07-01T13:45:11.464Z,0.60
2018-07-01T13:47:39.901Z,0.50
2018-07-01T13:50:08.450Z,0.70
2018-07-01T13:52:36.900Z,0.70
2018-07-01T13:55:05.408Z,1.00
2018-07-01T13:57:33.848Z,0.80
2018-07-01T14:00:05.008Z,0.82
2018-07-01T14:02:33.493Z,0.82
2018-07-01T14:05:02.322Z,0.60
2018-07-01T14:07:30.732Z,0.50
2018-07-01T14:09:59.105Z,0.40
2018-07-01T14:12:27.527Z,0.60
2018-07-01T14:14:56.173Z,0.60
2018-07-01T14:17:24.675Z,0.50
2018-07-01T14:19:53.081Z,0.50
2018-07-01T14:22:21.916Z,0.40
2018-07-01T14:24:50.375Z,0.62
2018-07-01T14:27:18.876Z,0.60
2018-07-01T14:29:47.244Z,0.50
2018-07-01T14:32:15.769Z,0.40
2018-07-01T14:34:45.066Z,0.75
2018-07-01T14:37:13.540Z,0.60
2018-07-01T14:39:41.981Z,0.68
2018-07-01T14:42:10.519Z,0.60
2018-07-01T14:44:38.933Z,0.50
2018-07-01T14:47:07.304Z,0.40
2018-07-01T14:49:35.728Z,0.70
2018-07-01T14:52:04.418Z,0.65
2018-07-01T14:54:32.865Z,0.60
2018-07-01T14:57:01.276Z,0.53
2018-07-01T14:59:29.466Z,0.60
2018-07-01T15:01:57.770Z,0.55
2018-07-01T15:04:26.194Z,0.70
2018-07-01T15:06:54.643Z,0.57
2018-07-01T15:09:23.091Z,0.57
2018-07-01T15:11:51.605Z,0.53
2018-07-01T15:14:20.061Z,0.60
2018-07-01T15:16:48.617Z,0.65
2018-07-01T15:19:17.108Z,0.80
2018-07-01T15:21:45.632Z,0.70
2018-07-01T15:24:14.155Z,0.50
2018-07-01T15:26:42.705Z,0.70
2018-07-01T15:29:11.150Z,0.60
2018-07-01T15:31:39.596Z,0.70
2018-07-01T15:34:08.025Z,0.70
2018-07-01T15:36:36.400Z,0.62
2018-07-01T15:39:08.171Z,0.57
2018-07-01T15:41:36.797Z,0.40
2018-07-01T15:44:05.322Z,0.60
2018-07-01T15:46:33.750Z,0.60
2018-07-01T15:49:02.290Z,0.70
2018-07-01T15:51:30.782Z,0.60
2018-07-01T15:53:59.204Z,0.60
2018-07-01T15:56:27.780Z,0.62
2018-07-01T15:58:56.372Z,0.68
2018-07-01T16:01:24.803Z,0.70
2018-07-01T16:03:53.320Z,0.47
2018-07-01T16:06:21.833Z,0.57
2018-07-01T16:08:52.442Z,0.68
2018-07-01T16:11:20.868Z,0.70
2018-07-01T16:13:49.241Z,0.60
2018-07-01T16:16:17.689Z,0.65
2018-07-01T16:18:46.245Z,0.57
2018-07-01T16:21:15.217Z,0.70
2018-07-01T16:23:43.715Z,0.60
2018-07-01T16:26:17.658Z,0.75
2018-07-01T16:28:51.365Z,0.53
2018-07-01T16:31:19.844Z,0.70
2018-07-01T16:33:48.304Z,0.82
2018-07-01T16:36:16.701Z,0.70
2018-07-01T16:38:45.108Z,0.70
2018-07-01T16:41:13.528Z,0.70
2018-07-01T16:43:42.048Z,0.70
2018-07-01T16:46:10.424Z,0.68
2018-07-01T16:48:38.885Z,0.60
2018-07-01T16:51:07.469Z,0.88
2018-07-01T16:53:35.954Z,0.70
2018-07-01T16:56:04.418Z,0.70
2018-07-01T16:58:32.856Z,0.70
2018-07-01T17:01:01.274Z,0.80
2018-07-01T17:03:29.661Z,0.78
2018-07-01T17:05:58.133Z,0.88
2018-07-01T17:08:26.694Z,0.75
2018-07-01T17:10:55.096Z,0.85
2018-07-01T17:13:23.570Z,1.00
2018-07-01T17:15:52.237Z,1.00
2018-07-01T17:18:20.743Z,1.07
2018-07-01T17:20:49.190Z,0.82
2018-07-01T17:23:17.603Z,1.00
2018-07-01T17:25:48.187Z,0.82
2018-07-01T17:28:16.763Z,1.10
2018-07-01T17:30:45.277Z,0.80
2018-07-01T17:33:18.925Z,0.60
2018-07-01T17:35:47.339Z,0.90
2018-07-01T17:38:15.749Z,0.90
2018-07-01T17:40:44.173Z,0.70
2018-07-01T17:43:12.605Z,0.70
2018-07-01T17:45:41.169Z,0.70
2018-07-01T17:48:09.857Z,0.53
2018-07-01T17:50:38.240Z,0.68
2018-07-01T17:53:06.790Z,0.62
2018-07-01T17:55:35.534Z,0.70
2018-07-01T17:58:03.940Z,0.50
2018-07-01T18:00:32.337Z,0.60
2018-07-01T18:03:00.788Z,0.60
2018-07-01T18:05:29.377Z,0.60
2018-07-01T18:07:57.800Z,0.60
2018-07-01T18:10:27.211Z,0.50
2018-07-01T18:12:56.592Z,0.82
2018-07-01T18:15:26.116Z,0.93
2018-07-01T18:17:54.764Z,1.00
2018-07-01T18:20:27.852Z,0.78
2018-07-01T18:23:27.418Z,1.40
2018-07-01T18:25:29.005Z,1.07
2018-07-01T18:28:11.464Z,0.95
2018-07-01T18:30:26.310Z,0.90
2018-07-01T18:32:57.044Z,1.10
2018-07-01T18:35:25.649Z,0.80
2018-07-01T18:37:54.412Z,0.68
2018-07-01T18:40:22.924Z,0.88
2018-07-01T18:42:51.373Z,0.70
2018-07-01T18:45:19.882Z,0.78
2018-07-01T18:47:48.522Z,0.70
2018-07-01T18:50:17.028Z,0.60
2018-07-01T18:52:45.522Z,0.90
2018-07-01T18:55:14.052Z,0.80
2018-07-01T18:57:42.785Z,0.50
2018-07-01T19:00:12.433Z,0.60
2018-07-01T19:02:41.957Z,0.80
2018-07-01T19:05:10.390Z,0.70
2018-07-01T19:07:38.826Z,0.72
2018-07-01T19:10:07.564Z,0.70
2018-07-01T19:12:37.134Z,0.70
2018-07-01T19:15:05.662Z,0.70
2018-07-01T19:17:37.388Z,0.68
2018-07-01T19:20:06.044Z,0.80
2018-07-01T19:22:34.651Z,0.98
2018-07-01T19:25:05.215Z,0.80
2018-07-01T19:27:34.809Z,0.62
2018-07-01T19:30:06.957Z,0.70
2018-07-01T19:32:39.820Z,0.53
2018-07-01T19:35:08.020Z,0.80
2018-07-01T19:37:36.520Z,0.70
2018-07-01T19:40:04.861Z,0.73
2018-07-01T19:42:33.378Z,0.85
2018-07-01T19:45:01.747Z,0.80
2018-07-01T19:47:30.201Z,0.80
2018-07-01T19:49:59.714Z,0.80
2018-07-01T19:52:28.254Z,0.73
2018-07-01T19:54:56.490Z,0.50
2018-07-01T19:57:24.940Z,0.50
2018-07-01T19:59:53.970Z,0.70
2018-07-01T20:02:22.501Z,0.77
2018-07-01T20:04:50.927Z,0.70
2018-07-01T20:07:19.436Z,0.63
2018-07-01T20:09:47.805Z,0.70
2018-07-01T20:12:16.268Z,0.90
2018-07-01T20:14:44.748Z,0.80
2018-07-01T20:17:13.160Z,0.83
2018-07-01T20:19:41.757Z,0.80
2018-07-01T20:22:10.550Z,0.70
2018-07-01T20:24:39.215Z,0.70
2018-07-01T20:27:07.685Z,0.50
2018-07-01T20:29:36.116Z,0.70
2018-07-01T20:32:04.605Z,0.60
2018-07-01T20:34:33.053Z,0.60
2018-07-01T20:37:01.673Z,0.80
2018-07-01T20:39:30.138Z,0.80
2018-07-01T20:41:58.520Z,0.70
2018-07-01T20:44:26.973Z,0.60
2018-07-01T20:46:55.361Z,0.80
2018-07-01T20:49:24.009Z,0.77
2018-07-01T20:51:52.396Z,1.17
2018-07-01T20:54:20.848Z,0.70
2018-07-01T20:56:49.721Z,0.70
2018-07-01T20:59:18.136Z,0.60
2018-07-01T21:01:46.661Z,0.50
2018-07-01T21:04:15.108Z,0.73
2018-07-01T21:06:43.568Z,0.60
2018-07-01T21:09:12.592Z,0.77
2018-07-01T21:11:41.042Z,0.43
2018-07-01T21:14:09.476Z,0.77
2018-07-01T21:16:40.017Z,0.60
2018-07-01T21:19:08.556Z,0.57
2018-07-01T21:21:37.027Z,0.70
2018-07-01T21:24:05.957Z,0.77
2018-07-01T21:26:34.417Z,0.70
2018-07-01T21:29:02.840Z,0.67
2018-07-01T21:31:31.477Z,0.70
2018-07-01T21:34:07.388Z,0.70
2018-07-01T21:36:35.948Z,1.00
2018-07-01T21:39:06.759Z,0.50
2018-07-01T21:41:35.401Z,0.40
2018-07-01T21:44:03.905Z,0.70
2018-07-01T21:46:32.411Z,0.60
2018-07-01T21:49:07.203Z,0.80
2018-07-01T21:51:35.560Z,0.67
2018-07-01T21:54:04.282Z,0.80
2018-07-01T21:56:32.726Z,0.60
2018-07-01T21:59:01.447Z,0.60
2018-07-01T22:01:29.912Z,0.80
2018-07-01T22:03:58.351Z,0.70
2018-07-01T22:06:30.948Z,0.73
2018-07-01T22:08:59.381Z,0.73
2018-07-01T22:11:51.477Z,0.70
2018-07-01T22:14:24.869Z,0.97
2018-07-01T22:16:53.364Z,1.00
2018-07-01T22:19:22.137Z,1.00
2018-07-01T22:21:51.600Z,0.97
2018-07-01T22:24:20.088Z,1.00
2018-07-01T22:26:48.712Z,1.03
2018-07-01T22:29:20.955Z,0.87
2018-07-01T22:31:49.393Z,1.17
2018-07-01T22:34:18.791Z,1.00
2018-07-01T22:36:47.960Z,1.03
2018-07-01T22:39:20.273Z,0.80
2018-07-01T22:41:49.648Z,1.07
2018-07-01T22:44:18.178Z,0.93
2018-07-01T22:46:47.120Z,0.80
2018-07-01T22:49:15.528Z,0.90
2018-07-01T22:51:48.442Z,1.57
2018-07-01T22:54:16.992Z,0.77
2018-07-01T22:56:45.640Z,0.77
2018-07-01T22:59:14.085Z,0.60
2018-07-01T23:01:56.165Z,0.70
2018-07-01T23:04:24.738Z,0.50
2018-07-01T23:06:53.413Z,0.70
2018-07-01T23:09:21.856Z,0.60
2018-07-01T23:11:50.276Z,0.87
2018-07-01T23:14:18.737Z,0.60
2018-07-01T23:16:47.230Z,0.60
2018-07-01T23:19:15.727Z,0.53
2018-07-01T23:21:44.177Z,0.67
2018-07-01T23:24:12.600Z,0.60
2018-07-01T23:26:41.416Z,2.00
2018-07-01T23:29:09.948Z,0.60
2018-07-01T23:31:38.472Z,0.40
2018-07-01T23:34:06.948Z,0.50
2018-07-01T23:36:35.337Z,0.60
2018-07-01T23:39:07.415Z,0.57
2018-07-01T23:41:35.994Z,0.63
2018-07-01T23:44:04.480Z,0.83
2018-07-01T23:46:32.880Z,0.70
2018-07-01T23:49:01.331Z,0.67
2018-07-01T23:51:29.722Z,0.60
2018-07-01T23:53:58.212Z,0.70
2018-07-01T23:56:27.148Z,0.60
2018-07-01T23:58:55.669Z,0.60
